Time,TemperatureF,DewpointF,PressureIn,WindDirection,WindDirectionDegrees,WindSpeedMPH,WindSpeedGustMPH,Humidity,HourlyPrecipIn,Conditions,Clouds,dailyrainin,SoftwareType,DateUTC
2013-05-04 00:00:00,66.7,34.2,30.00,SSE,168,6.0,13.0,30,0.00,CLR,SKC,0.00,WeatherDisplay:10.37,2013-05-04 04:00:00,
2013-05-04 00:10:00,66.9,33.6,30.00,South,181,1.0,14.0,29,0.00,CLR,SKC,0.00,WeatherDisplay:10.37,2013-05-04 04:10:00,
2013-05-04 00:20:00,66.7,34.2,30.00,South,179,8.0,14.0,30,0.00,CLR,SKC,0.00,WeatherDisplay:10.37,2013-05-04 04:20:00,
2013-05-04 00:30:00,66.2,34.7,30.01,South,176,6.0,14.0,31,0.00,CLR,SKC,0.00,WeatherDisplay:10.37,2013-05-04 04:30:00,
2013-05-04 00:40:00,66.3,35.5,30.01,SSE,168,3.0,18.0,32,0.00,CLR,SKC,0.00,WeatherDisplay:10.37,2013-05-04 04:40:00,
2013-05-04 00:50:00,66.0,35.3,30.01,SSE,166,8.0,14.0,32,0.00,CLR,SKC,0.00,WeatherDisplay:10.37,2013-05-04 04:50:00,
2013-05-04 01:00:00,66.3,35.5,30.01,South,181,8.0,16.0,32,0.00,CLR,SKC,0.00,WeatherDisplay:10.37,2013-05-04 05:00:00,
2013-05-04 01:10:00,65.8,36.6,30.01,SSE,167,3.0,15.0,34,0.00,CLR,SKC,0.00,WeatherDisplay:10.37,2013-05-04 05:10:00,
2013-05-04 01:20:00,65.3,36.2,30.01,South,179,7.0,19.0,34,0.00,CLR,SKC,0.00,WeatherDisplay:10.37,2013-05-04 05:20:00,
2013-05-04 01:30:00,65.2,36.8,30.01,South,179,6.0,18.0,35,0.00,CLR,SKC,0.00,WeatherDisplay:10.37,2013-05-04 05:30:00,
2013-05-04 01:40:00,65.0,37.4,30.01,South,175,1.0,18.0,36,0.00,CLR,SKC,0.00,WeatherDisplay:10.37,2013-05-04 05:40:00,
2013-05-04 01:50:00,65.0,37.3,30.02,South,177,8.0,18.0,36,0.00,CLR,SKC,0.00,WeatherDisplay:10.37,2013-05-04 05:50:00,
2013-05-04 02:00:00,64.7,38.5,30.01,South,183,2.0,15.0,38,0.00,CLR,SKC,0.00,WeatherDisplay:10.37,2013-05-04 06:00:00,
2013-05-04 02:10:00,64.0,38.6,30.01,SSE,153,3.0,12.0,39,0.00,CLR,SKC,0.00,WeatherDisplay:10.37,2013-05-04 06:10:00,
2013-05-04 02:20:00,64.2,39.4,30.01,South,174,8.0,15.0,40,0.00,CLR,SKC,0.00,WeatherDisplay:10.37,2013-05-04 06:20:00,
2013-05-04 02:30:00,64.0,39.8,30.01,South,172,9.0,17.0,41,0.00,CLR,SKC,0.00,WeatherDisplay:10.37,2013-05-04 06:30:00,
2013-05-04 02:40:00,63.7,39.5,30.01,South,169,5.0,20.0,41,0.00,CLR,SKC,0.00,WeatherDisplay:10.37,2013-05-04 06:40:00,
2013-05-04 02:50:00,63.8,40.2,30.01,South,176,10.0,21.0,42,0.00,CLR,SKC,0.00,WeatherDisplay:10.37,2013-05-04 06:50:00,
2013-05-04 03:00:00,63.7,40.7,30.01,South,173,3.0,17.0,43,0.00,CLR,SKC,0.00,WeatherDisplay:10.37,2013-05-04 07:00:00,
2013-05-04 03:10:00,63.2,40.9,30.01,SSE,165,6.0,13.0,44,0.00,CLR,SKC,0.00,WeatherDisplay:10.37,2013-05-04 07:10:00,
2013-05-04 03:20:00,64.1,42.3,30.01,SSE,167,0.0,16.0,45,0.00,CLR,SKC,0.00,WeatherDisplay:10.37,2013-05-04 07:20:00,
2013-05-04 03:30:00,63.1,41.4,30.01,SSE,166,1.0,13.0,45,0.00,CLR,SKC,0.00,WeatherDisplay:10.37,2013-05-04 07:30:00,
2013-05-04 03:40:00,62.6,40.9,30.02,South,170,7.0,17.0,45,0.00,CLR,SKC,0.00,WeatherDisplay:10.37,2013-05-04 07:40:00,
2013-05-04 03:50:00,62.3,41.3,30.01,SSE,166,5.0,15.0,46,0.00,CLR,SKC,0.00,WeatherDisplay:10.37,2013-05-04 07:50:00,
2013-05-04 04:00:00,62.2,41.1,30.01,SSE,167,9.0,17.0,46,0.00,CLR,SKC,0.00,WeatherDisplay:10.37,2013-05-04 08:00:00,
2013-05-04 04:10:00,61.6,40.6,30.02,South,177,6.0,15.0,46,0.00,CLR,SKC,0.00,WeatherDisplay:10.37,2013-05-04 08:10:00,
2013-05-04 04:20:00,61.5,41.0,30.02,SSE,164,8.0,16.0,47,0.00,CLR,SKC,0.00,WeatherDisplay:10.37,2013-05-04 08:20:00,
2013-05-04 04:30:00,61.9,42.0,30.02,SSE,157,5.0,15.0,48,0.00,CLR,SKC,0.00,WeatherDisplay:10.37,2013-05-04 08:30:00,
2013-05-04 04:40:00,61.5,41.6,30.02,SSE,168,7.0,12.0,48,0.00,CLR,SKC,0.00,WeatherDisplay:10.37,2013-05-04 08:40:00,
2013-05-04 04:50:00,61.5,41.6,30.02,SSE,167,9.0,17.0,48,0.00,CLR,SKC,0.00,WeatherDisplay:10.37,2013-05-04 08:50:00,
2013-05-04 05:00:00,61.5,42.6,30.02,SSE,159,1.0,13.0,50,0.00,CLR,SKC,0.00,WeatherDisplay:10.37,2013-05-04 09:00:00,
2013-05-04 05:10:00,60.7,41.4,30.02,South,173,7.0,15.0,49,0.00,CLR,SKC,0.00,WeatherDisplay:10.37,2013-05-04 09:10:00,
2013-05-04 05:20:00,60.7,42.0,30.02,South,172,6.0,10.0,50,0.00,CLR,SKC,0.00,WeatherDisplay:10.37,2013-05-04 09:20:00,
2013-05-04 05:30:00,60.7,41.9,30.02,SSE,159,3.0,11.0,50,0.00,CLR,SKC,0.00,WeatherDisplay:10.37,2013-05-04 09:30:00,
2013-05-04 05:40:00,60.3,42.1,30.02,SSE,164,5.0,11.0,51,0.00,CLR,SKC,0.00,WeatherDisplay:10.37,2013-05-04 09:40:00,
2013-05-04 05:50:00,60.3,42.1,30.02,SSE,154,1.0,12.0,51,0.00,CLR,SKC,0.00,WeatherDisplay:10.37,2013-05-04 09:50:00,
2013-05-04 06:00:00,59.4,42.2,30.02,SSE,159,0.0,10.0,53,0.00,CLR,SKC,0.00,WeatherDisplay:10.37,2013-05-04 10:00:00,
2013-05-04 06:10:00,59.7,42.6,30.02,SSE,159,7.0,12.0,53,0.00,CLR,SKC,0.00,WeatherDisplay:10.37,2013-05-04 10:10:00,
2013-05-04 06:20:00,59.0,42.8,30.02,SSE,166,1.0,12.0,55,0.00,CLR,SKC,0.00,WeatherDisplay:10.37,2013-05-04 10:20:00,
2013-05-04 06:30:00,59.0,42.4,30.02,SSE,151,6.0,10.0,54,0.00,CLR,SKC,0.00,WeatherDisplay:10.37,2013-05-04 10:30:00,
2013-05-04 06:40:00,59.2,43.1,30.02,SSE,147,3.0,10.0,55,0.00,CLR,SKC,0.00,WeatherDisplay:10.37,2013-05-04 10:40:00,
2013-05-04 06:50:00,57.9,41.4,30.02,SSE,149,0.0,10.0,54,0.00,CLR,SKC,0.00,WeatherDisplay:10.37,2013-05-04 10:50:00,
2013-05-04 07:00:00,58.1,42.9,30.03,SE,145,7.0,11.0,57,0.00,CLR,SKC,0.00,WeatherDisplay:10.37,2013-05-04 11:00:00,
2013-05-04 07:10:00,58.1,43.9,30.03,SE,145,6.0,13.0,59,0.00,CLR,SKC,0.00,WeatherDisplay:10.37,2013-05-04 11:10:00,
2013-05-04 07:20:00,57.4,42.8,30.03,SSE,149,7.0,14.0,58,0.00,CLR,SKC,0.00,WeatherDisplay:10.37,2013-05-04 11:20:00,
2013-05-04 07:30:00,57.9,42.8,30.03,SSE,152,8.0,15.0,57,0.00,CLR,SKC,0.00,WeatherDisplay:10.37,2013-05-04 11:30:00,
2013-05-04 07:39:00,58.0,42.8,30.03,SSE,157,7.0,12.0,57,0.00,CLR,SKC,0.00,WeatherDisplay:10.37,2013-05-04 11:39:00,
2013-05-04 07:49:00,57.9,42.7,30.03,SSE,153,5.0,15.0,57,0.00,CLR,SKC,0.00,WeatherDisplay:10.37,2013-05-04 11:49:00,
2013-05-04 08:09:00,58.9,42.3,30.02,SSE,158,2.0,18.0,54,0.00,CLR,SKC,0.00,WeatherDisplay:10.37,2013-05-04 12:09:00,
2013-05-04 08:19:00,59.3,41.1,30.02,SSE,159,7.0,20.0,51,0.00,CLR,SKC,0.00,WeatherDisplay:10.37,2013-05-04 12:19:00,
2013-05-04 08:29:00,59.7,41.5,30.02,South,179,5.0,14.0,51,0.00,CLR,SKC,0.00,WeatherDisplay:10.37,2013-05-04 12:29:00,
2013-05-04 08:39:00,59.9,40.7,30.03,South,173,9.0,22.0,49,0.00,CLR,SKC,0.00,WeatherDisplay:10.37,2013-05-04 12:39:00,
2013-05-04 08:49:00,59.7,40.5,30.02,SSE,163,6.0,21.0,49,0.00,CLR,SKC,0.00,WeatherDisplay:10.37,2013-05-04 12:49:00,
2013-05-04 08:59:00,60.6,40.8,30.03,SSE,156,5.0,17.0,48,0.00,CLR,SKC,0.00,WeatherDisplay:10.37,2013-05-04 12:59:00,
2013-05-04 09:09:00,60.1,40.3,30.03,SSE,162,9.0,21.0,48,0.00,CLR,SKC,0.00,WeatherDisplay:10.37,2013-05-04 13:09:00,
2013-05-04 09:19:00,60.4,40.1,30.03,SSE,165,5.0,21.0,47,0.00,CLR,SKC,0.00,WeatherDisplay:10.37,2013-05-04 13:19:00,
2013-05-04 09:29:00,59.9,39.6,30.03,South,169,2.0,18.0,47,0.00,CLR,SKC,0.00,WeatherDisplay:10.37,2013-05-04 13:29:00,
2013-05-04 09:39:00,61.5,40.5,30.03,SSE,163,7.0,20.0,46,0.00,CLR,SKC,0.00,WeatherDisplay:10.37,2013-05-04 13:39:00,
2013-05-04 09:49:00,61.1,39.6,30.03,SSE,157,9.0,18.0,45,0.00,CLR,SKC,0.00,WeatherDisplay:10.37,2013-05-04 13:49:00,
2013-05-04 09:59:00,61.9,39.8,30.03,SSE,166,10.0,17.0,44,0.00,CLR,SKC,0.00,WeatherDisplay:10.37,2013-05-04 13:59:00,
2013-05-04 10:09:00,62.2,39.4,30.03,SSE,160,7.0,20.0,43,0.00,CLR,SKC,0.00,WeatherDisplay:10.37,2013-05-04 14:09:00,
2013-05-04 10:19:00,61.6,38.9,30.03,SSE,159,10.0,22.0,43,0.00,CLR,SKC,0.00,WeatherDisplay:10.37,2013-05-04 14:19:00,
2013-05-04 10:29:00,63.1,39.0,30.02,SSE,147,13.0,23.0,41,0.00,CLR,SKC,0.00,WeatherDisplay:10.37,2013-05-04 14:29:00,
2013-05-04 10:39:00,63.2,38.5,30.02,SSE,155,7.0,20.0,40,0.00,CLR,SKC,0.00,WeatherDisplay:10.37,2013-05-04 14:39:00,
2013-05-04 10:49:00,63.6,38.9,30.02,South,169,6.0,18.0,40,0.00,CLR,SKC,0.00,WeatherDisplay:10.37,2013-05-04 14:49:00,
2013-05-04 10:59:00,64.8,39.3,30.02,SSE,148,7.0,15.0,39,0.00,CLR,SKC,0.00,WeatherDisplay:10.37,2013-05-04 14:59:00,
2013-05-04 11:09:00,64.5,36.2,30.02,SE,143,9.0,16.0,35,0.00,CLR,SKC,0.00,WeatherDisplay:10.37,2013-05-04 15:09:00,
2013-05-04 11:19:00,64.2,35.9,30.03,SSE,149,10.0,18.0,35,0.00,CLR,SKC,0.00,WeatherDisplay:10.37,2013-05-04 15:19:00,
2013-05-04 11:29:00,64.1,35.9,30.03,SE,145,8.0,17.0,35,0.00,CLR,SKC,0.00,WeatherDisplay:10.37,2013-05-04 15:29:00,
2013-05-04 11:39:00,65.6,37.2,30.02,SSE,157,1.0,13.0,35,0.00,CLR,SKC,0.00,WeatherDisplay:10.37,2013-05-04 15:39:00,
2013-05-04 11:49:00,65.4,37.1,30.02,SSE,150,8.0,15.0,35,0.00,CLR,SKC,0.00,WeatherDisplay:10.37,2013-05-04 15:49:00,
2013-05-04 11:59:00,64.9,36.6,30.02,SSE,156,10.0,18.0,35,0.00,CLR,SKC,0.00,WeatherDisplay:10.37,2013-05-04 15:59:00,
2013-05-04 12:09:00,65.2,36.1,30.02,SE,143,9.0,21.0,34,0.00,CLR,SKC,0.00,WeatherDisplay:10.37,2013-05-04 16:09:00,
2013-05-04 12:19:00,66.6,37.3,30.02,South,169,5.0,17.0,34,0.00,CLR,SKC,0.00,WeatherDisplay:10.37,2013-05-04 16:19:00,
2013-05-04 12:29:00,65.3,36.2,30.02,SSE,157,7.0,18.0,34,0.00,CLR,SKC,0.00,WeatherDisplay:10.37,2013-05-04 16:29:00,
2013-05-04 12:40:00,66.0,37.6,30.01,SE,144,1.0,14.0,35,0.00,CLR,SKC,0.00,WeatherDisplay:10.37,2013-05-04 16:40:00,
2013-05-04 12:50:00,66.5,36.5,30.01,SE,140,3.0,18.0,33,0.00,CLR,SKC,0.00,WeatherDisplay:10.37,2013-05-04 16:50:00,
2013-05-04 13:00:00,66.9,35.2,30.00,SSE,156,10.0,18.0,31,0.00,CLR,SKC,0.00,WeatherDisplay:10.37,2013-05-04 17:00:00,
2013-05-04 13:10:00,67.8,36.8,30.00,SE,144,1.0,16.0,32,0.00,CLR,SKC,0.00,WeatherDisplay:10.37,2013-05-04 17:10:00,
2013-05-04 13:20:00,67.1,35.4,30.00,SE,131,10.0,18.0,31,0.00,CLR,SKC,0.00,WeatherDisplay:10.37,2013-05-04 17:20:00,
2013-05-04 13:30:00,67.6,36.7,30.00,SE,133,10.0,16.0,32,0.00,CLR,SKC,0.00,WeatherDisplay:10.37,2013-05-04 17:30:00,
2013-05-04 13:40:00,67.5,35.0,29.99,SE,136,10.0,17.0,30,0.00,CLR,SKC,0.00,WeatherDisplay:10.37,2013-05-04 17:40:00,
2013-05-04 13:50:00,67.5,34.1,29.99,SE,145,8.0,17.0,29,0.00,CLR,SKC,0.00,WeatherDisplay:10.37,2013-05-04 17:50:00,
2013-05-04 14:00:00,68.4,34.0,29.99,SE,144,6.0,15.0,28,0.00,CLR,SKC,0.00,WeatherDisplay:10.37,2013-05-04 18:00:00,
2013-05-04 14:10:00,68.3,35.7,29.99,SE,136,8.0,17.0,30,0.00,CLR,SKC,0.00,WeatherDisplay:10.37,2013-05-04 18:10:00,
2013-05-04 14:20:00,69.2,35.6,29.99,SSE,157,8.0,15.0,29,0.00,CLR,SKC,0.00,WeatherDisplay:10.37,2013-05-04 18:20:00,
2013-05-04 14:30:00,68.2,33.8,29.99,SSE,147,8.0,21.0,28,0.00,CLR,SKC,0.00,WeatherDisplay:10.37,2013-05-04 18:30:00,
2013-05-04 14:40:00,68.4,34.8,29.98,SSE,161,8.0,17.0,29,0.00,CLR,SKC,0.00,WeatherDisplay:10.37,2013-05-04 18:40:00,
2013-05-04 14:50:00,69.5,33.1,29.98,SE,138,2.0,17.0,26,0.00,CLR,SKC,0.00,WeatherDisplay:10.37,2013-05-04 18:50:00,
2013-05-04 15:00:00,70.2,33.7,29.98,SE,136,7.0,14.0,26,0.00,CLR,SKC,0.00,WeatherDisplay:10.37,2013-05-04 19:00:00,
2013-05-04 15:10:00,69.6,35.0,29.97,SE,128,7.0,15.0,28,0.00,CLR,SKC,0.00,WeatherDisplay:10.37,2013-05-04 19:10:00,
2013-05-04 15:20:00,69.0,36.3,29.97,SSE,164,10.0,16.0,30,0.00,CLR,SKC,0.00,WeatherDisplay:10.37,2013-05-04 19:20:00,
2013-05-04 15:30:00,70.2,36.5,29.97,SSE,162,10.0,21.0,29,0.00,CLR,SKC,0.00,WeatherDisplay:10.37,2013-05-04 19:30:00,
2013-05-04 15:40:00,69.8,35.2,29.96,SSE,162,13.0,20.0,28,0.00,CLR,SKC,0.00,WeatherDisplay:10.37,2013-05-04 19:40:00,
2013-05-04 15:50:00,70.0,36.3,29.96,SSE,153,6.0,21.0,29,0.00,CLR,SKC,0.00,WeatherDisplay:10.37,2013-05-04 19:50:00,
2013-05-04 16:00:00,70.6,37.6,29.95,SSE,164,8.0,18.0,30,0.00,CLR,SKC,0.00,WeatherDisplay:10.37,2013-05-04 20:00:00,
2013-05-04 16:10:00,71.0,38.0,29.95,SSE,161,9.0,18.0,30,0.00,CLR,SKC,0.00,WeatherDisplay:10.37,2013-05-04 20:10:00,
2013-05-04 16:20:00,71.5,40.0,29.95,SE,143,12.0,21.0,32,0.00,CLR,SKC,0.00,WeatherDisplay:10.37,2013-05-04 20:20:00,
2013-05-04 16:30:00,71.6,41.8,29.95,SE,136,10.0,19.0,34,0.00,CLR,SKC,0.00,WeatherDisplay:10.37,2013-05-04 20:30:00,
2013-05-04 16:40:00,72.2,43.8,29.95,ESE,121,7.0,20.0,36,0.00,CLR,SKC,0.00,WeatherDisplay:10.37,2013-05-04 20:40:00,
2013-05-04 16:50:00,72.1,42.9,29.95,SE,127,8.0,17.0,35,0.00,CLR,SKC,0.00,WeatherDisplay:10.37,2013-05-04 20:50:00,
2013-05-04 17:00:00,70.2,42.7,29.95,SE,132,10.0,20.0,37,0.00,CLR,SKC,0.00,WeatherDisplay:10.37,2013-05-04 21:00:00,
2013-05-04 17:10:00,69.7,43.0,29.95,SE,131,7.0,22.0,38,0.00,CLR,SKC,0.00,WeatherDisplay:10.37,2013-05-04 21:10:00,
2013-05-04 17:20:00,69.8,41.6,29.95,SE,136,15.0,22.0,36,0.00,CLR,SKC,0.00,WeatherDisplay:10.37,2013-05-04 21:20:00,
2013-05-04 17:30:00,69.8,41.6,29.95,SSE,148,12.0,20.0,36,0.00,CLR,SKC,0.00,WeatherDisplay:10.37,2013-05-04 21:30:00,
2013-05-04 17:40:00,69.5,42.0,29.96,SE,144,13.0,21.0,37,0.00,CLR,SKC,0.00,WeatherDisplay:10.37,2013-05-04 21:40:00,
2013-05-04 17:50:00,69.8,41.6,29.96,SE,144,9.0,26.0,36,0.00,CLR,SKC,0.00,WeatherDisplay:10.37,2013-05-04 21:50:00,
2013-05-04 18:00:00,70.0,41.8,29.96,SSE,163,8.0,17.0,36,0.00,CLR,SKC,0.00,WeatherDisplay:10.37,2013-05-04 22:00:00,
2013-05-04 18:10:00,69.3,39.7,29.96,SSE,152,7.0,18.0,34,0.00,CLR,SKC,0.00,WeatherDisplay:10.37,2013-05-04 22:10:00,
2013-05-04 18:20:00,70.6,41.6,29.97,SSE,160,5.0,16.0,35,0.00,CLR,SKC,0.00,WeatherDisplay:10.37,2013-05-04 22:20:00,
2013-05-04 18:30:00,69.5,39.1,29.97,SSE,163,1.0,16.0,33,0.00,CLR,SKC,0.00,WeatherDisplay:10.37,2013-05-04 22:30:00,
2013-05-04 18:41:00,69.9,41.7,29.97,SSE,147,3.0,15.0,36,0.00,CLR,SKC,0.00,WeatherDisplay:10.37,2013-05-04 22:41:00,
2013-05-04 18:51:00,69.4,40.5,29.97,SSE,150,7.0,21.0,35,0.00,CLR,SKC,0.00,WeatherDisplay:10.37,2013-05-04 22:51:00,
2013-05-04 19:00:00,69.1,40.3,29.97,SSE,161,9.0,18.0,35,0.00,CLR,SKC,0.00,WeatherDisplay:10.37,2013-05-04 23:00:00,
2013-05-04 19:10:00,69.2,41.1,29.97,SSE,160,8.0,15.0,36,0.00,CLR,SKC,0.00,WeatherDisplay:10.37,2013-05-04 23:10:00,
2013-05-04 19:20:00,68.4,39.7,29.97,SSE,155,8.0,15.0,35,0.00,CLR,SKC,0.00,WeatherDisplay:10.37,2013-05-04 23:20:00,
2013-05-04 19:30:00,68.1,40.1,29.98,SSE,157,8.0,13.0,36,0.00,CLR,SKC,0.00,WeatherDisplay:10.37,2013-05-04 23:30:00,
2013-05-04 19:40:00,68.4,41.8,29.98,SSE,155,0.0,12.0,38,0.00,CLR,SKC,0.00,WeatherDisplay:10.37,2013-05-04 23:40:00,
2013-05-04 19:50:00,68.3,41.0,29.98,SSE,153,3.0,12.0,37,0.00,CLR,SKC,0.00,WeatherDisplay:10.37,2013-05-04 23:50:00,
2013-05-04 20:00:00,68.8,41.4,29.98,SSE,150,1.0,10.0,37,0.00,CLR,SKC,0.00,WeatherDisplay:10.37,2013-05-05 00:00:00,
2013-05-04 20:10:00,68.2,39.5,29.99,South,188,0.0,9.0,35,0.00,CLR,SKC,0.00,WeatherDisplay:10.37,2013-05-05 00:10:00,
2013-05-04 20:20:00,68.8,40.7,29.99,SSE,160,0.0,7.0,36,0.00,CLR,SKC,0.00,WeatherDisplay:10.37,2013-05-05 00:20:00,
2013-05-04 20:30:00,67.8,40.5,29.99,SSE,151,0.0,6.0,37,0.00,CLR,SKC,0.00,WeatherDisplay:10.37,2013-05-05 00:30:00,
2013-05-04 20:40:00,68.3,43.6,29.99,SE,128,0.0,7.0,41,0.00,CLR,SKC,0.00,WeatherDisplay:10.37,2013-05-05 00:40:00,
2013-05-04 20:50:00,68.1,41.6,29.99,SE,135,0.0,3.0,38,0.00,CLR,SKC,0.00,WeatherDisplay:10.37,2013-05-05 00:50:00,
2013-05-04 21:00:00,67.8,41.3,29.99,SE,141,0.0,0.0,38,0.00,CLR,SKC,0.00,WeatherDisplay:10.37,2013-05-05 01:00:00,
2013-05-04 21:10:00,66.9,41.8,29.99,SE,141,0.0,0.0,40,0.00,CLR,SKC,0.00,WeatherDisplay:10.37,2013-05-05 01:10:00,
2013-05-04 21:20:00,66.3,42.5,29.99,SE,141,0.0,0.0,42,0.00,CLR,SKC,0.00,WeatherDisplay:10.37,2013-05-05 01:20:00,
2013-05-04 21:30:00,65.3,42.9,30.00,SE,141,0.0,0.0,44,0.00,CLR,SKC,0.00,WeatherDisplay:10.37,2013-05-05 01:30:00,
2013-05-04 21:40:00,65.6,43.1,30.00,SE,141,0.0,0.0,44,0.00,CLR,SKC,0.00,WeatherDisplay:10.37,2013-05-05 01:40:00,
2013-05-04 21:50:00,64.9,43.1,30.00,SE,141,0.0,0.0,45,0.00,CLR,SKC,0.00,WeatherDisplay:10.37,2013-05-05 01:50:00,
2013-05-04 22:00:00,64.2,43.0,30.00,SE,141,0.0,0.0,46,0.00,CLR,SKC,0.00,WeatherDisplay:10.37,2013-05-05 02:00:00,
2013-05-04 22:10:00,64.4,43.2,30.00,SE,141,0.0,0.0,46,0.00,CLR,SKC,0.00,WeatherDisplay:10.37,2013-05-05 02:10:00,
2013-05-04 22:20:00,64.3,43.6,30.01,SE,135,0.0,6.0,47,0.00,CLR,SKC,0.00,WeatherDisplay:10.37,2013-05-05 02:20:00,
2013-05-04 22:30:00,63.8,43.7,30.00,ESE,123,2.0,6.0,48,0.00,CLR,SKC,0.00,WeatherDisplay:10.37,2013-05-05 02:30:00,
2013-05-04 22:40:00,64.4,43.2,30.00,ESE,104,0.0,6.0,46,0.00,CLR,SKC,0.00,WeatherDisplay:10.37,2013-05-05 02:40:00,
2013-05-04 22:50:00,64.0,43.3,30.00,ESE,118,2.0,9.0,47,0.00,CLR,SKC,0.00,WeatherDisplay:10.37,2013-05-05 02:50:00,
2013-05-04 23:00:00,63.6,41.9,30.00,East,96,0.0,7.0,45,0.00,CLR,SKC,0.00,WeatherDisplay:10.37,2013-05-05 03:00:00,
2013-05-04 23:10:00,64.3,41.9,30.00,SE,134,0.0,8.0,44,0.00,CLR,SKC,0.00,WeatherDisplay:10.37,2013-05-05 03:10:00,
2013-05-04 23:20:00,63.7,40.8,30.00,ESE,115,0.0,9.0,43,0.00,CLR,SKC,0.00,WeatherDisplay:10.37,2013-05-05 03:20:00,
2013-05-04 23:30:00,63.1,40.8,30.00,ESE,107,0.0,6.0,44,0.00,CLR,SKC,0.00,WeatherDisplay:10.37,2013-05-05 03:30:00,
2013-05-04 23:40:00,62.5,40.9,30.00,ESE,108,0.0,0.0,45,0.00,CLR,SKC,0.00,WeatherDisplay:10.37,2013-05-05 03:40:00,
2013-05-04 23:50:00,62.4,40.2,30.00,ESE,110,0.0,9.0,44,0.00,CLR,SKC,0.00,WeatherDisplay:10.37,2013-05-05 03:50:00,